createdAt,value
2023-04-10T00:02:10.526Z,14.35
2023-04-10T00:04:37.702Z,14.32
2023-04-10T00:07:04.791Z,14.32
2023-04-10T00:09:31.752Z,14.30
2023-04-10T00:11:58.720Z,14.29
2023-04-10T00:14:25.711Z,14.30
2023-04-10T00:16:52.644Z,14.30
2023-04-10T00:19:19.652Z,14.31
2023-04-10T00:21:46.671Z,14.32
2023-04-10T00:24:13.732Z,14.32
2023-04-10T00:26:41.020Z,14.34
2023-04-10T00:29:08.543Z,14.35
2023-04-10T00:31:35.693Z,14.34
2023-04-10T00:34:02.633Z,14.38
2023-04-10T00:36:29.661Z,14.39
2023-04-10T00:38:56.710Z,14.40
2023-04-10T00:41:24.370Z,14.40
2023-04-10T00:43:55.921Z,14.41
2023-04-10T00:46:23.450Z,14.43
2023-04-10T00:48:51.513Z,14.47
2023-04-10T00:51:21.001Z,14.48
2023-04-10T00:53:48.699Z,14.46
2023-04-10T00:56:15.998Z,14.48
2023-04-10T00:58:43.025Z,14.49
2023-04-10T01:01:10.197Z,14.46
2023-04-10T01:03:38.185Z,14.48
2023-04-10T01:06:12.636Z,14.49
2023-04-10T01:08:42.699Z,14.49
2023-04-10T01:11:13.431Z,14.50
2023-04-10T01:13:44.330Z,14.49
2023-04-10T01:16:16.655Z,14.49
2023-04-10T01:18:46.834Z,14.51
2023-04-10T01:21:15.270Z,14.52
2023-04-10T01:23:42.682Z,14.52
2023-04-10T01:26:10.814Z,14.51
2023-04-10T01:28:40.873Z,14.51
2023-04-10T01:31:09.218Z,14.50
2023-04-10T01:33:40.061Z,14.50
2023-04-10T01:36:08.019Z,14.52
2023-04-10T01:38:36.720Z,14.54
2023-04-10T01:41:04.390Z,14.53
2023-04-10T01:43:32.434Z,14.54
2023-04-10T01:46:00.002Z,14.53
2023-04-10T01:48:27.001Z,14.51
2023-04-10T01:50:54.891Z,14.51
2023-04-10T01:53:22.281Z,14.51
2023-04-10T01:55:49.459Z,14.49
2023-04-10T01:58:16.519Z,14.49
2023-04-10T02:00:43.888Z,14.48
2023-04-10T02:03:11.231Z,14.49
2023-04-10T02:05:46.621Z,14.48
2023-04-10T02:08:18.761Z,14.50
2023-04-10T02:10:48.279Z,14.50
2023-04-10T02:13:16.533Z,14.48
2023-04-10T02:15:46.896Z,14.49
2023-04-10T02:18:16.804Z,14.46
2023-04-10T02:20:43.865Z,14.43
2023-04-10T02:23:11.320Z,14.42
2023-04-10T02:25:38.367Z,14.38
2023-04-10T02:28:05.828Z,14.35
2023-04-10T02:30:33.516Z,14.29
2023-04-10T02:33:00.654Z,14.29
2023-04-10T02:35:29.497Z,14.23
2023-04-10T02:37:56.748Z,14.20
2023-04-10T02:40:23.936Z,14.17
2023-04-10T02:42:51.240Z,14.13
2023-04-10T02:45:18.293Z,14.09
2023-04-10T02:47:45.308Z,14.07
2023-04-10T02:50:12.378Z,14.07
2023-04-10T02:52:39.321Z,14.02
2023-04-10T02:55:06.688Z,14.00
2023-04-10T02:57:35.049Z,13.98
2023-04-10T03:00:03.012Z,13.98
2023-04-10T03:02:30.121Z,13.95
2023-04-10T03:04:57.431Z,13.92
2023-04-10T03:07:24.456Z,13.88
2023-04-10T03:09:51.705Z,13.86
2023-04-10T03:12:18.817Z,13.83
2023-04-10T03:14:46.043Z,13.79
2023-04-10T03:17:13.943Z,13.77
2023-04-10T03:19:40.858Z,13.78
2023-04-10T03:22:07.913Z,13.77
2023-04-10T03:24:34.888Z,13.74
2023-04-10T03:27:01.892Z,13.74
2023-04-10T03:29:29.643Z,13.75
2023-04-10T03:31:57.737Z,13.72
2023-04-10T03:34:24.808Z,13.69
2023-04-10T03:36:51.862Z,13.65
2023-04-10T03:39:18.813Z,13.62
2023-04-10T03:41:45.768Z,13.61
2023-04-10T03:44:12.798Z,13.60
2023-04-10T03:46:39.728Z,13.54
2023-04-10T03:49:06.677Z,13.51
2023-04-10T03:51:33.640Z,13.50
2023-04-10T03:54:00.570Z,13.49
2023-04-10T03:56:27.525Z,13.47
2023-04-10T03:58:54.406Z,13.44
2023-04-10T04:01:22.444Z,13.41
2023-04-10T04:03:49.626Z,13.37
2023-04-10T04:06:16.707Z,13.32
2023-04-10T04:08:43.702Z,13.30
2023-04-10T04:11:10.801Z,13.28
2023-04-10T04:13:37.728Z,13.28
2023-04-10T04:16:04.988Z,13.28
2023-04-10T04:18:31.908Z,13.26
2023-04-10T04:20:58.823Z,13.26
2023-04-10T04:23:25.715Z,13.24
2023-04-10T04:25:54.625Z,13.25
2023-04-10T04:28:21.709Z,13.26
2023-04-10T04:30:48.669Z,13.25
2023-04-10T04:33:15.633Z,13.25
2023-04-10T04:35:42.558Z,13.24
2023-04-10T04:38:09.522Z,13.22
2023-04-10T04:40:36.628Z,13.18
2023-04-10T04:43:03.555Z,13.16
2023-04-10T04:45:31.362Z,13.19
2023-04-10T04:47:58.431Z,13.18
2023-04-10T04:50:25.521Z,13.17
2023-04-10T04:52:52.447Z,13.16
2023-04-10T04:55:19.393Z,13.17
2023-04-10T04:57:46.348Z,13.13
2023-04-10T05:00:13.477Z,13.14
2023-04-10T05:02:40.492Z,13.10
2023-04-10T05:05:07.731Z,13.12
2023-04-10T05:07:34.697Z,13.11
2023-04-10T05:10:01.838Z,13.12
2023-04-10T05:12:28.727Z,13.10
2023-04-10T05:14:55.715Z,13.10
2023-04-10T05:17:22.790Z,13.08
2023-04-10T05:19:49.781Z,13.06
2023-04-10T05:22:18.509Z,13.05
2023-04-10T05:24:45.690Z,13.07
2023-04-10T05:27:12.742Z,13.09
2023-04-10T05:29:39.660Z,13.09
2023-04-10T05:32:06.756Z,13.11
2023-04-10T05:34:33.759Z,13.11
2023-04-10T05:37:00.740Z,13.14
2023-04-10T05:39:27.733Z,13.16
2023-04-10T05:41:54.745Z,13.17
2023-04-10T05:44:21.682Z,13.15
2023-04-10T05:46:48.670Z,13.15
2023-04-10T05:49:15.803Z,13.15
2023-04-10T05:51:43.024Z,13.17
2023-04-10T05:54:09.960Z,13.18
2023-04-10T05:56:36.932Z,13.18
2023-04-10T05:59:03.842Z,13.18
2023-04-10T06:01:30.913Z,13.19
2023-04-10T06:03:58.261Z,13.18
2023-04-10T06:06:26.625Z,13.18
2023-04-10T06:08:53.783Z,13.19
2023-04-10T06:11:21.475Z,13.15
2023-04-10T06:13:48.463Z,13.16
2023-04-10T06:16:15.873Z,13.17
2023-04-10T06:18:43.082Z,13.14
2023-04-10T06:21:10.132Z,13.18
2023-04-10T06:23:37.634Z,13.20
2023-04-10T06:26:04.819Z,13.22
2023-04-10T06:28:31.915Z,13.24
2023-04-10T06:30:59.044Z,13.25
2023-04-10T06:33:26.469Z,13.26
2023-04-10T06:35:53.501Z,13.26
2023-04-10T06:38:20.420Z,13.29
2023-04-10T06:40:47.447Z,13.27
2023-04-10T06:43:14.426Z,13.26
2023-04-10T06:45:41.488Z,13.29
2023-04-10T06:48:08.770Z,13.32
2023-04-10T06:50:35.923Z,13.33
2023-04-10T06:53:02.986Z,13.34
2023-04-10T06:55:30.202Z,13.37
2023-04-10T06:57:57.261Z,13.38
2023-04-10T07:00:24.324Z,13.43
2023-04-10T07:02:51.290Z,13.42
2023-04-10T07:05:19.170Z,13.45
2023-04-10T07:07:47.874Z,13.47
2023-04-10T07:10:14.883Z,13.51
2023-04-10T07:12:41.882Z,13.52
2023-04-10T07:15:09.310Z,13.53
2023-04-10T07:17:36.408Z,13.52
2023-04-10T07:20:03.569Z,13.52
2023-04-10T07:22:31.289Z,13.52
2023-04-10T07:24:58.941Z,13.50
2023-04-10T07:27:25.896Z,13.51
2023-04-10T07:29:55.469Z,13.49
2023-04-10T07:32:22.699Z,13.48
2023-04-10T07:34:49.927Z,13.45
2023-04-10T07:37:18.422Z,13.46
2023-04-10T07:39:45.784Z,13.43
2023-04-10T07:42:12.844Z,13.43
2023-04-10T07:44:39.862Z,13.40
2023-04-10T07:47:06.804Z,13.36
2023-04-10T07:49:33.869Z,13.31
2023-04-10T07:52:00.808Z,13.32
2023-04-10T07:54:27.750Z,13.30
2023-04-10T07:56:54.709Z,13.27
2023-04-10T07:59:21.801Z,13.27
2023-04-10T08:01:48.840Z,13.26
2023-04-10T08:04:16.234Z,13.26
2023-04-10T08:06:43.274Z,13.29
2023-04-10T08:09:10.270Z,13.32
2023-04-10T08:11:38.321Z,13.35
2023-04-10T08:14:07.425Z,13.36
2023-04-10T08:16:35.724Z,13.35
2023-04-10T08:19:03.008Z,13.36
2023-04-10T08:21:30.692Z,13.40
2023-04-10T08:23:58.528Z,13.42
2023-04-10T08:26:26.651Z,13.43
2023-04-10T08:28:54.782Z,13.46
2023-04-10T08:31:22.503Z,13.46
2023-04-10T08:33:49.633Z,13.48
2023-04-10T08:36:19.173Z,13.49
2023-04-10T08:38:48.052Z,13.51
2023-04-10T08:41:16.320Z,13.53
2023-04-10T08:43:44.226Z,13.54
2023-04-10T08:46:12.389Z,13.56
2023-04-10T08:48:41.427Z,13.58
2023-04-10T08:51:15.498Z,13.60
2023-04-10T08:53:48.900Z,13.64
2023-04-10T08:56:16.939Z,13.65
2023-04-10T08:58:44.322Z,13.69
2023-04-10T09:01:12.564Z,13.73
2023-04-10T09:03:39.918Z,13.69
2023-04-10T09:06:07.229Z,13.73
2023-04-10T09:08:34.430Z,13.73
2023-04-10T09:11:01.556Z,13.70
2023-04-10T09:13:31.572Z,13.71
2023-04-10T09:16:00.581Z,13.74
2023-04-10T09:18:30.788Z,13.78
2023-04-10T09:21:06.830Z,13.80
2023-04-10T09:23:33.952Z,13.84
2023-04-10T09:26:00.964Z,13.87
2023-04-10T09:28:27.914Z,13.85
2023-04-10T09:30:55.689Z,13.86
2023-04-10T09:33:23.836Z,13.88
2023-04-10T09:35:51.258Z,13.85
2023-04-10T09:38:19.295Z,13.86
2023-04-10T09:40:46.958Z,13.86
2023-04-10T09:43:16.985Z,13.83
2023-04-10T09:45:47.034Z,13.79
2023-04-10T09:48:14.004Z,13.83
2023-04-10T09:50:42.081Z,13.85
2023-04-10T09:53:11.728Z,13.88
2023-04-10T09:55:38.893Z,13.91
2023-04-10T09:58:06.848Z,13.96
2023-04-10T10:00:38.992Z,14.02
2023-04-10T10:03:08.037Z,14.06
2023-04-10T10:05:36.788Z,14.05
2023-04-10T10:08:05.344Z,14.05
2023-04-10T10:10:32.592Z,14.03
2023-04-10T10:13:01.485Z,14.03
2023-04-10T10:15:29.923Z,14.07
2023-04-10T10:18:04.339Z,14.07
2023-04-10T10:20:34.134Z,14.08
2023-04-10T10:23:04.688Z,14.11
2023-04-10T10:25:31.885Z,14.13
2023-04-10T10:28:00.820Z,14.15
2023-04-10T10:30:30.476Z,14.17
2023-04-10T10:32:59.112Z,14.18
2023-04-10T10:35:29.301Z,14.17
2023-04-10T10:37:59.045Z,14.17
2023-04-10T10:40:26.415Z,14.22
2023-04-10T10:42:58.307Z,14.22
2023-04-10T10:45:31.484Z,14.19
2023-04-10T10:47:58.656Z,14.16
2023-04-10T10:50:25.725Z,14.09
2023-04-10T10:52:54.403Z,14.07
2023-04-10T10:55:23.394Z,14.09
2023-04-10T10:57:50.916Z,14.10
2023-04-10T11:00:18.523Z,14.11
2023-04-10T11:02:46.003Z,14.12
2023-04-10T11:05:32.976Z,14.21
2023-04-10T11:08:00.258Z,14.30
2023-04-10T11:10:32.795Z,14.41
2023-04-10T11:13:03.306Z,14.47
2023-04-10T11:15:30.983Z,14.53
2023-04-10T11:17:58.620Z,14.60
2023-04-10T11:20:27.700Z,14.67
2023-04-10T11:22:57.815Z,14.75
2023-04-10T11:25:45.399Z,14.84
2023-04-10T11:28:32.485Z,14.90
2023-04-10T11:31:02.764Z,14.95
2023-04-10T11:33:30.263Z,15.02
2023-04-10T11:35:58.322Z,15.02
2023-04-10T11:38:25.477Z,15.06
2023-04-10T11:40:55.004Z,15.12
2023-04-10T11:43:22.050Z,15.11
2023-04-10T11:45:49.455Z,15.05
2023-04-10T11:48:17.959Z,15.08
2023-04-10T11:50:45.171Z,15.09
2023-04-10T11:53:15.400Z,15.12
2023-04-10T11:55:42.600Z,15.13
2023-04-10T11:58:12.639Z,15.18
2023-04-10T12:00:39.648Z,15.25
2023-04-10T12:03:06.986Z,15.33
2023-04-10T12:05:46.407Z,15.44
2023-04-10T12:08:13.728Z,15.47
2023-04-10T12:10:44.128Z,15.60
2023-04-10T12:13:24.863Z,15.70
2023-04-10T12:15:52.365Z,15.75
2023-04-10T12:18:19.551Z,15.80
2023-04-10T12:20:46.896Z,15.89
2023-04-10T12:23:14.009Z,16.04
2023-04-10T12:25:42.374Z,16.15
2023-04-10T12:28:09.592Z,16.23
2023-04-10T12:30:37.023Z,16.30
2023-04-10T12:33:06.317Z,16.31
2023-04-10T12:35:36.719Z,16.28
2023-04-10T12:38:03.629Z,16.21
2023-04-10T12:40:31.083Z,16.10
2023-04-10T12:42:58.319Z,15.80
2023-04-10T12:45:28.484Z,15.59
2023-04-10T12:47:56.725Z,15.30
2023-04-10T12:50:24.667Z,15.15
2023-04-10T12:52:54.927Z,14.94
2023-04-10T12:55:24.428Z,14.76
2023-04-10T12:57:52.308Z,14.58
2023-04-10T13:00:20.166Z,14.43
2023-04-10T13:02:48.704Z,14.31
2023-04-10T13:05:17.851Z,14.34
2023-04-10T13:07:45.408Z,14.34
2023-04-10T13:10:12.917Z,14.37
2023-04-10T13:12:41.150Z,14.45
2023-04-10T13:15:08.618Z,14.47
2023-04-10T13:17:36.223Z,14.58
2023-04-10T13:20:03.679Z,14.65
2023-04-10T13:22:30.794Z,14.67
2023-04-10T13:24:58.016Z,14.74
2023-04-10T13:27:25.236Z,14.78
2023-04-10T13:29:52.439Z,14.82
2023-04-10T13:32:19.687Z,14.85
2023-04-10T13:34:46.858Z,14.90
2023-04-10T13:37:14.081Z,15.03
2023-04-10T13:39:41.595Z,15.22
2023-04-10T13:42:08.896Z,15.37
2023-04-10T13:44:35.983Z,15.51
2023-04-10T13:47:03.436Z,15.60
2023-04-10T13:49:31.131Z,15.73
2023-04-10T13:51:58.431Z,15.83
2023-04-10T13:54:25.866Z,15.89
2023-04-10T13:56:55.095Z,15.91
2023-04-10T13:59:22.748Z,15.88
2023-04-10T14:01:53.034Z,15.90
2023-04-10T14:04:20.580Z,15.93
2023-04-10T14:06:48.504Z,15.94
2023-04-10T14:09:16.675Z,15.90
2023-04-10T14:11:43.874Z,15.82
2023-04-10T14:14:11.243Z,15.76
2023-04-10T14:16:38.744Z,15.66
2023-04-10T14:19:05.997Z,15.58
2023-04-10T14:21:33.097Z,15.60
2023-04-10T14:24:01.342Z,15.62
2023-04-10T14:26:28.898Z,15.65
2023-04-10T14:28:56.540Z,15.68
2023-04-10T14:31:24.042Z,15.75
2023-04-10T14:33:51.450Z,15.81
2023-04-10T14:36:18.671Z,15.96
2023-04-10T14:38:45.864Z,16.11
2023-04-10T14:41:12.961Z,16.23
2023-04-10T14:43:40.235Z,16.29
2023-04-10T14:46:07.678Z,16.35
2023-04-10T14:48:34.903Z,16.38
2023-04-10T14:51:02.614Z,16.41
2023-04-10T14:53:29.783Z,16.40
2023-04-10T14:55:57.226Z,16.37
2023-04-10T14:58:24.507Z,16.36
2023-04-10T15:00:52.363Z,16.33
2023-04-10T15:03:20.312Z,16.28
2023-04-10T15:05:48.798Z,16.28
2023-04-10T15:08:15.996Z,16.33
2023-04-10T15:10:43.309Z,16.39
2023-04-10T15:13:10.636Z,16.45
2023-04-10T15:15:38.160Z,16.50
2023-04-10T15:18:05.429Z,16.53
2023-04-10T15:20:32.798Z,16.56
2023-04-10T15:23:00.763Z,16.59
2023-04-10T15:25:27.965Z,16.50
2023-04-10T15:27:56.924Z,16.43
2023-04-10T15:30:25.535Z,16.39
2023-04-10T15:32:52.943Z,16.34
2023-04-10T15:35:21.529Z,16.31
2023-04-10T15:37:48.991Z,16.36
2023-04-10T15:40:16.585Z,16.46
2023-04-10T15:42:43.857Z,16.49
2023-04-10T15:45:11.961Z,16.51
2023-04-10T15:47:39.678Z,16.54
2023-04-10T15:50:09.039Z,16.53
2023-04-10T15:52:37.902Z,16.50
2023-04-10T15:55:05.874Z,16.50
2023-04-10T15:57:33.238Z,16.50
2023-04-10T16:00:02.666Z,16.52
2023-04-10T16:02:33.136Z,16.48
2023-04-10T16:05:00.720Z,16.48
2023-04-10T16:07:28.249Z,16.47
2023-04-10T16:09:57.228Z,16.45
2023-04-10T16:12:24.864Z,16.48
2023-04-10T16:14:52.064Z,16.49
2023-04-10T16:17:19.564Z,16.49
2023-04-10T16:19:47.755Z,16.45
2023-04-10T16:22:14.872Z,16.41
2023-04-10T16:24:41.983Z,16.39
2023-04-10T16:27:09.074Z,16.37
2023-04-10T16:29:36.785Z,16.38
2023-04-10T16:32:09.764Z,16.37
2023-04-10T16:34:37.060Z,16.38
2023-04-10T16:37:04.228Z,16.37
2023-04-10T16:39:31.534Z,16.31
2023-04-10T16:42:03.850Z,16.26
2023-04-10T16:44:31.381Z,16.21
2023-04-10T16:46:58.662Z,16.14
2023-04-10T16:49:26.040Z,16.01
2023-04-10T16:51:53.420Z,15.92
2023-04-10T16:54:20.855Z,15.87
2023-04-10T16:56:48.067Z,15.88
2023-04-10T16:59:18.952Z,15.87
2023-04-10T17:01:46.113Z,15.83
2023-04-10T17:04:13.756Z,15.81
2023-04-10T17:06:41.155Z,15.77
2023-04-10T17:09:08.303Z,15.74
2023-04-10T17:11:35.380Z,15.77
2023-04-10T17:14:03.471Z,15.83
2023-04-10T17:16:30.928Z,15.85
2023-04-10T17:18:58.120Z,15.83
2023-04-10T17:21:25.457Z,15.83
2023-04-10T17:23:52.439Z,15.84
2023-04-10T17:26:19.689Z,15.80
2023-04-10T17:28:46.946Z,15.75
2023-04-10T17:31:14.651Z,15.67
2023-04-10T17:33:42.966Z,15.59
2023-04-10T17:36:11.137Z,15.53
2023-04-10T17:38:38.536Z,15.42
2023-04-10T17:41:06.121Z,15.37
2023-04-10T17:43:33.339Z,15.26
2023-04-10T17:46:00.807Z,15.20
2023-04-10T17:48:28.522Z,15.11
2023-04-10T17:50:55.742Z,15.07
2023-04-10T17:53:22.876Z,15.00
2023-04-10T17:55:50.099Z,14.93
2023-04-10T17:58:17.123Z,14.91
2023-04-10T18:00:44.241Z,14.93
2023-04-10T18:03:12.022Z,14.91
2023-04-10T18:05:40.220Z,14.93
2023-04-10T18:08:08.406Z,14.94
2023-04-10T18:10:35.798Z,14.95
2023-04-10T18:13:02.777Z,14.92
2023-04-10T18:15:33.204Z,14.90
2023-04-10T18:18:00.425Z,14.87
2023-04-10T18:20:27.533Z,14.79
2023-04-10T18:22:55.296Z,14.71
2023-04-10T18:25:22.498Z,14.63
2023-04-10T18:28:09.806Z,14.57
2023-04-10T18:30:39.391Z,14.51
2023-04-10T18:33:10.169Z,14.46
2023-04-10T18:35:38.616Z,14.42
2023-04-10T18:38:05.969Z,14.39
2023-04-10T18:40:35.100Z,14.37
2023-04-10T18:43:02.315Z,14.31
2023-04-10T18:45:29.507Z,14.28
2023-04-10T18:47:56.570Z,14.23
2023-04-10T18:50:23.803Z,14.18
2023-04-10T18:52:51.045Z,14.11
2023-04-10T18:55:19.613Z,14.08
2023-04-10T18:57:46.883Z,14.03
2023-04-10T19:00:14.241Z,13.98
2023-04-10T19:02:41.544Z,13.92
2023-04-10T19:05:09.762Z,13.87
2023-04-10T19:07:36.893Z,13.83
2023-04-10T19:10:04.198Z,13.78
2023-04-10T19:12:31.362Z,13.79
2023-04-10T19:14:58.615Z,13.72
2023-04-10T19:17:25.860Z,13.69
2023-04-10T19:19:53.590Z,13.63
2023-04-10T19:22:20.965Z,13.62
2023-04-10T19:24:48.204Z,13.60
2023-04-10T19:27:15.493Z,13.56
2023-04-10T19:29:42.596Z,13.53
2023-04-10T19:32:10.448Z,13.50
2023-04-10T19:34:37.640Z,13.48
2023-04-10T19:37:04.742Z,13.42
2023-04-10T19:39:32.253Z,13.39
2023-04-10T19:41:59.476Z,13.38
2023-04-10T19:44:26.582Z,13.37
2023-04-10T19:46:53.788Z,13.31
2023-04-10T19:49:20.983Z,13.31
2023-04-10T19:51:48.257Z,13.24
2023-04-10T19:54:15.396Z,13.19
2023-04-10T19:56:43.023Z,13.16
2023-04-10T19:59:10.379Z,13.12
2023-04-10T20:01:37.649Z,13.11
2023-04-10T20:04:05.220Z,13.08
2023-04-10T20:06:32.689Z,13.07
2023-04-10T20:08:59.829Z,13.02
2023-04-10T20:11:30.994Z,13.01
2023-04-10T20:13:58.254Z,12.97
2023-04-10T20:16:26.749Z,12.96
2023-04-10T20:18:54.998Z,12.94
2023-04-10T20:21:22.413Z,12.93
2023-04-10T20:23:49.736Z,12.90
2023-04-10T20:26:17.561Z,12.85
2023-04-10T20:28:44.953Z,12.79
2023-04-10T20:31:12.616Z,12.76
2023-04-10T20:33:40.011Z,12.76
2023-04-10T20:36:08.241Z,12.75
2023-04-10T20:38:35.624Z,12.77
2023-04-10T20:41:02.780Z,12.82
2023-04-10T20:43:29.930Z,12.78
2023-04-10T20:45:57.203Z,12.65
2023-04-10T20:48:24.470Z,12.42
2023-04-10T20:50:52.234Z,12.17
2023-04-10T20:53:19.348Z,11.96
2023-04-10T20:55:46.619Z,11.77
2023-04-10T20:58:13.651Z,11.68
2023-04-10T21:00:41.464Z,11.56
2023-04-10T21:03:09.906Z,11.43
2023-04-10T21:05:40.944Z,11.41
2023-04-10T21:08:08.935Z,11.46
2023-04-10T21:10:37.757Z,11.47
2023-04-10T21:13:04.761Z,11.51
2023-04-10T21:15:31.879Z,11.42
2023-04-10T21:17:58.937Z,11.40
2023-04-10T21:20:26.114Z,11.43
2023-04-10T21:22:53.155Z,11.44
2023-04-10T21:25:20.119Z,11.41
2023-04-10T21:27:47.285Z,11.41
2023-04-10T21:30:14.334Z,11.32
2023-04-10T21:32:41.397Z,11.31
2023-04-10T21:35:09.094Z,11.29
2023-04-10T21:37:36.152Z,11.26
2023-04-10T21:40:03.214Z,11.27
2023-04-10T21:42:30.215Z,11.22
2023-04-10T21:44:59.194Z,11.17
2023-04-10T21:47:26.116Z,11.13
2023-04-10T21:49:53.068Z,11.11
2023-04-10T21:52:20.171Z,11.11
2023-04-10T21:54:47.107Z,11.13
2023-04-10T21:57:14.036Z,11.14
2023-04-10T21:59:41.060Z,11.15
2023-04-10T22:02:08.140Z,11.15
2023-04-10T22:04:41.378Z,11.18
2023-04-10T22:07:12.521Z,11.19
2023-04-10T22:09:39.496Z,11.19
2023-04-10T22:12:06.717Z,11.23
2023-04-10T22:14:33.636Z,11.23
2023-04-10T22:17:00.948Z,11.25
2023-04-10T22:19:27.923Z,11.26
2023-04-10T22:21:54.877Z,11.27
2023-04-10T22:24:21.788Z,11.28
2023-04-10T22:26:48.749Z,11.29
2023-04-10T22:29:15.772Z,11.30
2023-04-10T22:31:43.380Z,11.33
2023-04-10T22:34:10.536Z,11.35
2023-04-10T22:36:37.499Z,11.33
2023-04-10T22:39:04.432Z,11.36
2023-04-10T22:41:31.688Z,11.38
2023-04-10T22:43:58.645Z,11.40
2023-04-10T22:46:25.677Z,11.41
2023-04-10T22:48:53.805Z,11.42
2023-04-10T22:51:21.163Z,11.45
2023-04-10T22:53:48.132Z,11.45
2023-04-10T22:56:15.136Z,11.47
2023-04-10T22:58:42.286Z,11.46
2023-04-10T23:01:09.754Z,11.40
2023-04-10T23:03:36.867Z,11.44
2023-04-10T23:06:03.971Z,11.46
2023-04-10T23:08:31.054Z,11.45
2023-04-10T23:10:58.948Z,11.40
2023-04-10T23:13:25.989Z,11.43
2023-04-10T23:15:53.560Z,11.46
2023-04-10T23:18:20.888Z,11.44
2023-04-10T23:20:47.932Z,11.41
2023-04-10T23:23:15.253Z,11.43
2023-04-10T23:25:42.349Z,11.43
2023-04-10T23:28:09.349Z,11.43
2023-04-10T23:30:36.769Z,11.43
2023-04-10T23:33:03.766Z,11.41
2023-04-10T23:35:30.806Z,11.39
2023-04-10T23:37:58.113Z,11.37
2023-04-10T23:40:25.140Z,11.34
2023-04-10T23:42:52.119Z,11.27
2023-04-10T23:45:19.079Z,11.24
2023-04-10T23:47:46.010Z,11.22
2023-04-10T23:50:13.063Z,11.21
2023-04-10T23:52:40.159Z,11.14
2023-04-10T23:55:07.323Z,11.08
2023-04-10T23:57:34.246Z,11.08
